Aviation Digital Data Service (ADDS)

Output produced by METARs form (1836 UTC 18 April 2019)
found at http://www.aviationweather.gov/metar/data/
 
METAR text: EHGR 181825Z AUTO 07011KT 030V130 9999 NCD 19/04 Q1024 BLU 07012KT CAVOK
Conditions at: EHGR (GILZE-RIJEN RNLA, NL) observed 1825 UTC 18 April 2019
Temperature: 19.0°C (66°F)
Dewpoint: 4.0°C (39°F) [RH = 37%]
Pressure (altimeter): 30.24 inches Hg (1024.0 mb)
Winds: from the ENE (70 degrees) at 13 MPH (11 knots; 5.7 m/s)
Visibility: 6 or more miles (10+ km)
Ceiling: at least 12,000 feet AGL
Clouds: sky clear below 12,000 feet AGL
Weather: no significant weather observed at this time

METAR text: EHGR 181755Z AUTO 06012KT 020V110 9999 NCD 20/04 Q1023 BLU 07012KT CAVOK
Conditions at: EHGR (GILZE-RIJEN RNLA, NL) observed 1755 UTC 18 April 2019
Temperature: 20.0°C (68°F)
Dewpoint: 4.0°C (39°F) [RH = 35%]
Pressure (altimeter): 30.21 inches Hg (1023.0 mb)
Winds: from the ENE (60 degrees) at 14 MPH (12 knots; 6.2 m/s)
Visibility: 6 or more miles (10+ km)
Ceiling: at least 12,000 feet AGL
Clouds: sky clear below 12,000 feet AGL
Weather: no significant weather observed at this time

METAR text: EHGR 181730Z AUTO 07013KT 030V110 9999 NCD 21/04 Q1023 BLU 07012KT CAVOK
Conditions at: EHGR (GILZE-RIJEN RNLA, NL) observed 1730 UTC 18 April 2019
Temperature: 21.0°C (70°F)
Dewpoint: 4.0°C (39°F) [RH = 33%]
Pressure (altimeter): 30.21 inches Hg (1023.0 mb)
Winds: from the ENE (70 degrees) at 15 MPH (13 knots; 6.7 m/s)
Visibility: 6 or more miles (10+ km)
Ceiling: at least 12,000 feet AGL
Clouds: sky clear below 12,000 feet AGL
Weather: no significant weather observed at this time

METAR text: EHGR 181725Z AUTO 06013KT 020V130 9999 NCD 21/04 Q1023 BLU 09012KT CAVOK
Conditions at: EHGR (GILZE-RIJEN RNLA, NL) observed 1725 UTC 18 April 2019
Temperature: 21.0°C (70°F)
Dewpoint: 4.0°C (39°F) [RH = 33%]
Pressure (altimeter): 30.21 inches Hg (1023.0 mb)
Winds: from the ENE (60 degrees) at 15 MPH (13 knots; 6.7 m/s)
Visibility: 6 or more miles (10+ km)
Ceiling: at least 12,000 feet AGL
Clouds: sky clear below 12,000 feet AGL
Weather: no significant weather observed at this time

METAR text: EHGR 181655Z AUTO 07013KT 010V110 9999 NCD 21/03 Q1023 BLU 09012KT CAVOK
Conditions at: EHGR (GILZE-RIJEN RNLA, NL) observed 1655 UTC 18 April 2019
Temperature: 21.0°C (70°F)
Dewpoint: 3.0°C (37°F) [RH = 30%]
Pressure (altimeter): 30.21 inches Hg (1023.0 mb)
Winds: from the ENE (70 degrees) at 15 MPH (13 knots; 6.7 m/s)
Visibility: 6 or more miles (10+ km)
Ceiling: at least 12,000 feet AGL
Clouds: sky clear below 12,000 feet AGL
Weather: no significant weather observed at this time

METAR text: EHGR 181625Z AUTO 09011KT 050V140 9999 NCD 22/03 Q1023 BLU 09012KT CAVOK
Conditions at: EHGR (GILZE-RIJEN RNLA, NL) observed 1625 UTC 18 April 2019
Temperature: 22.0°C (72°F)
Dewpoint: 3.0°C (37°F) [RH = 29%]
Pressure (altimeter): 30.21 inches Hg (1023.0 mb)
Winds: from the E (90 degrees) at 13 MPH (11 knots; 5.7 m/s)
Visibility: 6 or more miles (10+ km)
Ceiling: at least 12,000 feet AGL
Clouds: sky clear below 12,000 feet AGL
Weather: no significant weather observed at this time

METAR text: EHGR 181555Z AUTO 09012KT 030V140 9999 NCD 22/05 Q1023 BLU 09012KT CAVOK
Conditions at: EHGR (GILZE-RIJEN RNLA, NL) observed 1555 UTC 18 April 2019
Temperature: 22.0°C (72°F)
Dewpoint: 5.0°C (41°F) [RH = 33%]
Pressure (altimeter): 30.21 inches Hg (1023.0 mb)
Winds: from the E (90 degrees) at 14 MPH (12 knots; 6.2 m/s)
Visibility: 6 or more miles (10+ km)
Ceiling: at least 12,000 feet AGL
Clouds: sky clear below 12,000 feet AGL
Weather: no significant weather observed at this time

METAR text: EHGR 181525Z AUTO 06014KT 350V120 9999 NCD 22/05 Q1023 BLU
Conditions at: EHGR (GILZE-RIJEN RNLA, NL) observed 1525 UTC 18 April 2019
Temperature: 22.0°C (72°F)
Dewpoint: 5.0°C (41°F) [RH = 33%]
Pressure (altimeter): 30.21 inches Hg (1023.0 mb)
Winds: from the ENE (60 degrees) at 16 MPH (14 knots; 7.2 m/s)
Visibility: 6 or more miles (10+ km)
Ceiling: at least 12,000 feet AGL
Clouds: sky clear below 12,000 feet AGL
Weather: no significant weather observed at this time

METAR text: EHGR 181455Z AUTO 08011KT 020V150 9999 NCD 22/06 Q1023 BLU
Conditions at: EHGR (GILZE-RIJEN RNLA, NL) observed 1455 UTC 18 April 2019
Temperature: 22.0°C (72°F)
Dewpoint: 6.0°C (43°F) [RH = 35%]
Pressure (altimeter): 30.21 inches Hg (1023.0 mb)
Winds: from the E (80 degrees) at 13 MPH (11 knots; 5.7 m/s)
Visibility: 6 or more miles (10+ km)
Ceiling: at least 12,000 feet AGL
Clouds: sky clear below 12,000 feet AGL
Weather: no significant weather observed at this time

METAR text: EHGR 181434Z AUTO 10012KT 020V160 9999 NCD 22/06 Q1023 BLU
Conditions at: EHGR (GILZE-RIJEN RNLA, NL) observed 1434 UTC 18 April 2019
Temperature: 22.0°C (72°F)
Dewpoint: 6.0°C (43°F) [RH = 35%]
Pressure (altimeter): 30.21 inches Hg (1023.0 mb)
Winds: from the E (100 degrees) at 14 MPH (12 knots; 6.2 m/s)
Visibility: 6 or more miles (10+ km)
Ceiling: at least 12,000 feet AGL
Clouds: sky clear below 12,000 feet AGL
Weather: no significant weather observed at this time

METAR text: EHGR 181425Z AUTO 07011KT 030V140 9999 NCD 22/06 Q1023 BLU 10012KT CAVOK
Conditions at: EHGR (GILZE-RIJEN RNLA, NL) observed 1425 UTC 18 April 2019
Temperature: 22.0°C (72°F)
Dewpoint: 6.0°C (43°F) [RH = 35%]
Pressure (altimeter): 30.21 inches Hg (1023.0 mb)
Winds: from the ENE (70 degrees) at 13 MPH (11 knots; 5.7 m/s)
Visibility: 6 or more miles (10+ km)
Ceiling: at least 12,000 feet AGL
Clouds: sky clear below 12,000 feet AGL
Weather: no significant weather observed at this time

METAR text: EHGR 181355Z AUTO 09013KT 070V140 9999 NCD 22/05 Q1023 BLU 10012KT CAVOK
Conditions at: EHGR (GILZE-RIJEN RNLA, NL) observed 1355 UTC 18 April 2019
Temperature: 22.0°C (72°F)
Dewpoint: 5.0°C (41°F) [RH = 33%]
Pressure (altimeter): 30.21 inches Hg (1023.0 mb)
Winds: from the E (90 degrees) at 15 MPH (13 knots; 6.7 m/s)
Visibility: 6 or more miles (10+ km)
Ceiling: at least 12,000 feet AGL
Clouds: sky clear below 12,000 feet AGL
Weather: no significant weather observed at this time

METAR text: EHGR 181325Z AUTO 10013KT 060V140 9999 NCD 22/04 Q1023 BLU 10012KT CAVOK
Conditions at: EHGR (GILZE-RIJEN RNLA, NL) observed 1325 UTC 18 April 2019
Temperature: 22.0°C (72°F)
Dewpoint: 4.0°C (39°F) [RH = 31%]
Pressure (altimeter): 30.21 inches Hg (1023.0 mb)
Winds: from the E (100 degrees) at 15 MPH (13 knots; 6.7 m/s)
Visibility: 6 or more miles (10+ km)
Ceiling: at least 12,000 feet AGL
Clouds: sky clear below 12,000 feet AGL
Weather: no significant weather observed at this time

METAR text: EHGR 181255Z AUTO 10011KT 350V160 9999 NCD 22/05 Q1023 BLU 10012KT CAVOK
Conditions at: EHGR (GILZE-RIJEN RNLA, NL) observed 1255 UTC 18 April 2019
Temperature: 22.0°C (72°F)
Dewpoint: 5.0°C (41°F) [RH = 33%]
Pressure (altimeter): 30.21 inches Hg (1023.0 mb)
Winds: from the E (100 degrees) at 13 MPH (11 knots; 5.7 m/s)
Visibility: 6 or more miles (10+ km)
Ceiling: at least 12,000 feet AGL
Clouds: sky clear below 12,000 feet AGL
Weather: no significant weather observed at this time

METAR text: EHGR 181225Z AUTO 10011KT 060V150 9999 NCD 21/05 Q1024 BLU 10012KT CAVOK
Conditions at: EHGR (GILZE-RIJEN RNLA, NL) observed 1225 UTC 18 April 2019
Temperature: 21.0°C (70°F)
Dewpoint: 5.0°C (41°F) [RH = 35%]
Pressure (altimeter): 30.24 inches Hg (1024.0 mb)
Winds: from the E (100 degrees) at 13 MPH (11 knots; 5.7 m/s)
Visibility: 6 or more miles (10+ km)
Ceiling: at least 12,000 feet AGL
Clouds: sky clear below 12,000 feet AGL
Weather: no significant weather observed at this time

METAR text: EHGR 181155Z AUTO 09010KT 040V140 9999 NCD 21/05 Q1024 BLU 10012KT CAVOK
Conditions at: EHGR (GILZE-RIJEN RNLA, NL) observed 1155 UTC 18 April 2019
Temperature: 21.0°C (70°F)
Dewpoint: 5.0°C (41°F) [RH = 35%]
Pressure (altimeter): 30.24 inches Hg (1024.0 mb)
Winds: from the E (90 degrees) at 12 MPH (10 knots; 5.1 m/s)
Visibility: 6 or more miles (10+ km)
Ceiling: at least 12,000 feet AGL
Clouds: sky clear below 12,000 feet AGL
Weather: no significant weather observed at this time

METAR text: EHGR 181125Z AUTO 07014KT 010V120 9999 NCD 20/05 Q1024 BLU 10012KT CAVOK
Conditions at: EHGR (GILZE-RIJEN RNLA, NL) observed 1125 UTC 18 April 2019
Temperature: 20.0°C (68°F)
Dewpoint: 5.0°C (41°F) [RH = 37%]
Pressure (altimeter): 30.24 inches Hg (1024.0 mb)
Winds: from the ENE (70 degrees) at 16 MPH (14 knots; 7.2 m/s)
Visibility: 6 or more miles (10+ km)
Ceiling: at least 12,000 feet AGL
Clouds: sky clear below 12,000 feet AGL
Weather: no significant weather observed at this time

METAR text: EHGR 181055Z AUTO 06013KT 010V110 9999 NCD 20/05 Q1024 BLU 10012KT CAVOK
Conditions at: EHGR (GILZE-RIJEN RNLA, NL) observed 1055 UTC 18 April 2019
Temperature: 20.0°C (68°F)
Dewpoint: 5.0°C (41°F) [RH = 37%]
Pressure (altimeter): 30.24 inches Hg (1024.0 mb)
Winds: from the ENE (60 degrees) at 15 MPH (13 knots; 6.7 m/s)
Visibility: 6 or more miles (10+ km)
Ceiling: at least 12,000 feet AGL
Clouds: sky clear below 12,000 feet AGL
Weather: no significant weather observed at this time

METAR text: EHGR 181025Z AUTO 08012KT 010V140 9999 NCD 20/05 Q1024 BLU 10012KT CAVOK
Conditions at: EHGR (GILZE-RIJEN RNLA, NL) observed 1025 UTC 18 April 2019
Temperature: 20.0°C (68°F)
Dewpoint: 5.0°C (41°F) [RH = 37%]
Pressure (altimeter): 30.24 inches Hg (1024.0 mb)
Winds: from the E (80 degrees) at 14 MPH (12 knots; 6.2 m/s)
Visibility: 6 or more miles (10+ km)
Ceiling: at least 12,000 feet AGL
Clouds: sky clear below 12,000 feet AGL
Weather: no significant weather observed at this time

METAR text: EHGR 180955Z AUTO 09011KT 050V140 9999 NCD 20/06 Q1024 BLU 10012KT CAVOK
Conditions at: EHGR (GILZE-RIJEN RNLA, NL) observed 0955 UTC 18 April 2019
Temperature: 20.0°C (68°F)
Dewpoint: 6.0°C (43°F) [RH = 40%]
Pressure (altimeter): 30.24 inches Hg (1024.0 mb)
Winds: from the E (90 degrees) at 13 MPH (11 knots; 5.7 m/s)
Visibility: 6 or more miles (10+ km)
Ceiling: at least 12,000 feet AGL
Clouds: sky clear below 12,000 feet AGL
Weather: no significant weather observed at this time

METAR text: EHGR 180925Z AUTO 09012KT 060V150 9999 NCD 19/05 Q1025 BLU 10012KT CAVOK
Conditions at: EHGR (GILZE-RIJEN RNLA, NL) observed 0925 UTC 18 April 2019
Temperature: 19.0°C (66°F)
Dewpoint: 5.0°C (41°F) [RH = 40%]
Pressure (altimeter): 30.27 inches Hg (1025.0 mb)
Winds: from the E (90 degrees) at 14 MPH (12 knots; 6.2 m/s)
Visibility: 6 or more miles (10+ km)
Ceiling: at least 12,000 feet AGL
Clouds: sky clear below 12,000 feet AGL
Weather: no significant weather observed at this time

METAR text: EHGR 180858Z AUTO 09010KT 060V130 9999 NCD 18/06 Q1025 BLU 10012KT CAVOK
Conditions at: EHGR (GILZE-RIJEN RNLA, NL) observed 0858 UTC 18 April 2019
Temperature: 18.0°C (64°F)
Dewpoint: 6.0°C (43°F) [RH = 45%]
Pressure (altimeter): 30.27 inches Hg (1025.0 mb)
Winds: from the E (90 degrees) at 12 MPH (10 knots; 5.1 m/s)
Visibility: 6 or more miles (10+ km)
Ceiling: at least 12,000 feet AGL
Clouds: sky clear below 12,000 feet AGL
Weather: no significant weather observed at this time

METAR text: EHGR 180855Z AUTO 09011KT 060V140 9999 NCD 18/06 Q1025 BLU 10010KT CAVOK
Conditions at: EHGR (GILZE-RIJEN RNLA, NL) observed 0855 UTC 18 April 2019
Temperature: 18.0°C (64°F)
Dewpoint: 6.0°C (43°F) [RH = 45%]
Pressure (altimeter): 30.27 inches Hg (1025.0 mb)
Winds: from the E (90 degrees) at 13 MPH (11 knots; 5.7 m/s)
Visibility: 6 or more miles (10+ km)
Ceiling: at least 12,000 feet AGL
Clouds: sky clear below 12,000 feet AGL
Weather: no significant weather observed at this time

METAR text: EHGR 180833Z AUTO 10011KT 030V140 9999 NCD 17/05 Q1024 BLU 10010KT CAVOK
Conditions at: EHGR (GILZE-RIJEN RNLA, NL) observed 0833 UTC 18 April 2019
Temperature: 17.0°C (63°F)
Dewpoint: 5.0°C (41°F) [RH = 45%]
Pressure (altimeter): 30.24 inches Hg (1024.0 mb)
Winds: from the E (100 degrees) at 13 MPH (11 knots; 5.7 m/s)
Visibility: 6 or more miles (10+ km)
Ceiling: at least 12,000 feet AGL
Clouds: sky clear below 12,000 feet AGL
Weather: no significant weather observed at this time

METAR text: EHGR 180825Z AUTO 10010KT 060V140 9999 NCD 17/06 Q1024 BLU 10010KT CAVOK
Conditions at: EHGR (GILZE-RIJEN RNLA, NL) observed 0825 UTC 18 April 2019
Temperature: 17.0°C (63°F)
Dewpoint: 6.0°C (43°F) [RH = 48%]
Pressure (altimeter): 30.24 inches Hg (1024.0 mb)
Winds: from the E (100 degrees) at 12 MPH (10 knots; 5.1 m/s)
Visibility: 6 or more miles (10+ km)
Ceiling: at least 12,000 feet AGL
Clouds: sky clear below 12,000 feet AGL
Weather: no significant weather observed at this time

METAR text: EHGR 180818Z AUTO 10009KT 060V140 9999 NCD 17/06 Q1024 BLU 10010KT CAVOK
Conditions at: EHGR (GILZE-RIJEN RNLA, NL) observed 0818 UTC 18 April 2019
Temperature: 17.0°C (63°F)
Dewpoint: 6.0°C (43°F) [RH = 48%]
Pressure (altimeter): 30.24 inches Hg (1024.0 mb)
Winds: from the E (100 degrees) at 10 MPH (9 knots; 4.6 m/s)
Visibility: 6 or more miles (10+ km)
Ceiling: at least 12,000 feet AGL
Clouds: sky clear below 12,000 feet AGL
Weather: no significant weather observed at this time

METAR text: EHGR 180755Z AUTO 10010KT 070V150 9999 NCD 16/04 Q1024 BLU 10010KT CAVOK
Conditions at: EHGR (GILZE-RIJEN RNLA, NL) observed 0755 UTC 18 April 2019
Temperature: 16.0°C (61°F)
Dewpoint: 4.0°C (39°F) [RH = 45%]
Pressure (altimeter): 30.24 inches Hg (1024.0 mb)
Winds: from the E (100 degrees) at 12 MPH (10 knots; 5.1 m/s)
Visibility: 6 or more miles (10+ km)
Ceiling: at least 12,000 feet AGL
Clouds: sky clear below 12,000 feet AGL
Weather: no significant weather observed at this time

METAR text: EHGR 180725Z AUTO 10009KT 070V140 9999 NCD 15/04 Q1024 BLU 10010KT CAVOK
Conditions at: EHGR (GILZE-RIJEN RNLA, NL) observed 0725 UTC 18 April 2019
Temperature: 15.0°C (59°F)
Dewpoint: 4.0°C (39°F) [RH = 48%]
Pressure (altimeter): 30.24 inches Hg (1024.0 mb)
Winds: from the E (100 degrees) at 10 MPH (9 knots; 4.6 m/s)
Visibility: 6 or more miles (10+ km)
Ceiling: at least 12,000 feet AGL
Clouds: sky clear below 12,000 feet AGL
Weather: no significant weather observed at this time

METAR text: EHGR 180655Z AUTO 10007KT 060V140 9999 NCD 13/05 Q1024 BLU 10010KT CAVOK
Conditions at: EHGR (GILZE-RIJEN RNLA, NL) observed 0655 UTC 18 April 2019
Temperature: 13.0°C (55°F)
Dewpoint: 5.0°C (41°F) [RH = 58%]
Pressure (altimeter): 30.24 inches Hg (1024.0 mb)
Winds: from the E (100 degrees) at 8 MPH (7 knots; 3.6 m/s)
Visibility: 6 or more miles (10+ km)
Ceiling: at least 12,000 feet AGL
Clouds: sky clear below 12,000 feet AGL
Weather: no significant weather observed at this time

METAR text: EHGR 180626Z AUTO 10009KT 060V140 9999 SCT083 13/04 Q1024 BLU 10010KT CAVOK
Conditions at: EHGR (GILZE-RIJEN RNLA, NL) observed 0626 UTC 18 April 2019
Temperature: 13.0°C (55°F)
Dewpoint: 4.0°C (39°F) [RH = 54%]
Pressure (altimeter): 30.24 inches Hg (1024.0 mb)
Winds: from the E (100 degrees) at 10 MPH (9 knots; 4.6 m/s)
Visibility: 6 or more miles (10+ km)
Ceiling: at least 12,000 feet AGL
Clouds: scattered clouds at 8300 feet AGL
Weather: no significant weather observed at this time

METAR text: EHGR 180625Z AUTO 09008KT 060V140 9999 BKN083 13/04 Q1024 BLU
Conditions at: EHGR (GILZE-RIJEN RNLA, NL) observed 0625 UTC 18 April 2019
Temperature: 13.0°C (55°F)
Dewpoint: 4.0°C (39°F) [RH = 54%]
Pressure (altimeter): 30.24 inches Hg (1024.0 mb)
Winds: from the E (90 degrees) at 9 MPH (8 knots; 4.1 m/s)
Visibility: 6 or more miles (10+ km)
Ceiling: 8300 feet AGL
Clouds: broken clouds at 8300 feet AGL
Weather: no significant weather observed at this time

METAR text: EHGR 180555Z AUTO 08008KT 040V120 9999 SCT083 BKN088 12/05 Q1023 BLU
Conditions at: EHGR (GILZE-RIJEN RNLA, NL) observed 0555 UTC 18 April 2019
Temperature: 12.0°C (54°F)
Dewpoint: 5.0°C (41°F) [RH = 62%]
Pressure (altimeter): 30.21 inches Hg (1023.0 mb)
Winds: from the E (80 degrees) at 9 MPH (8 knots; 4.1 m/s)
Visibility: 6 or more miles (10+ km)
Ceiling: 8800 feet AGL
Clouds: scattered clouds at 8300 feet AGL
broken clouds at 8800 feet AGL
Weather: no significant weather observed at this time

METAR text: EHGR 180525Z AUTO 07006KT 020V100 9999 OVC081 10/05 Q1023 BLU
Conditions at: EHGR (GILZE-RIJEN RNLA, NL) observed 0525 UTC 18 April 2019
Temperature: 10.0°C (50°F)
Dewpoint: 5.0°C (41°F) [RH = 71%]
Pressure (altimeter): 30.21 inches Hg (1023.0 mb)
Winds: from the ENE (70 degrees) at 7 MPH (6 knots; 3.1 m/s)
Visibility: 6 or more miles (10+ km)
Ceiling: 8100 feet AGL
Clouds: overcast cloud deck at 8100 feet AGL
Weather: no significant weather observed at this time

METAR text: EHGR 180455Z AUTO 08007KT 040V130 9999 NCD 09/04 Q1023 BLU
Conditions at: EHGR (GILZE-RIJEN RNLA, NL) observed 0455 UTC 18 April 2019
Temperature: 9.0°C (48°F)
Dewpoint: 4.0°C (39°F) [RH = 71%]
Pressure (altimeter): 30.21 inches Hg (1023.0 mb)
Winds: from the E (80 degrees) at 8 MPH (7 knots; 3.6 m/s)
Visibility: 6 or more miles (10+ km)
Ceiling: at least 12,000 feet AGL
Clouds: sky clear below 12,000 feet AGL
Weather: no significant weather observed at this time

METAR text: EHGR 180425Z AUTO 07006KT 030V100 9999 NCD 09/04 Q1023 BLU
Conditions at: EHGR (GILZE-RIJEN RNLA, NL) observed 0425 UTC 18 April 2019
Temperature: 9.0°C (48°F)
Dewpoint: 4.0°C (39°F) [RH = 71%]
Pressure (altimeter): 30.21 inches Hg (1023.0 mb)
Winds: from the ENE (70 degrees) at 7 MPH (6 knots; 3.1 m/s)
Visibility: 6 or more miles (10+ km)
Ceiling: at least 12,000 feet AGL
Clouds: sky clear below 12,000 feet AGL
Weather: no significant weather observed at this time

METAR text: EHGR 180355Z AUTO 08005KT 040V120 9999 FEW100 10/05 Q1023 BLU
Conditions at: EHGR (GILZE-RIJEN RNLA, NL) observed 0355 UTC 18 April 2019
Temperature: 10.0°C (50°F)
Dewpoint: 5.0°C (41°F) [RH = 71%]
Pressure (altimeter): 30.21 inches Hg (1023.0 mb)
Winds: from the E (80 degrees) at 6 MPH (5 knots; 2.6 m/s)
Visibility: 6 or more miles (10+ km)
Ceiling: at least 12,000 feet AGL
Clouds: few clouds at 10000 feet AGL
Weather: no significant weather observed at this time

METAR text: EHGR 180325Z AUTO 07005KT 030V100 9999 FEW077 BKN083 OVC090 10/06 Q1023 BLU
Conditions at: EHGR (GILZE-RIJEN RNLA, NL) observed 0325 UTC 18 April 2019
Temperature: 10.0°C (50°F)
Dewpoint: 6.0°C (43°F) [RH = 76%]
Pressure (altimeter): 30.21 inches Hg (1023.0 mb)
Winds: from the ENE (70 degrees) at 6 MPH (5 knots; 2.6 m/s)
Visibility: 6 or more miles (10+ km)
Ceiling: 8300 feet AGL
Clouds: few clouds at 7700 feet AGL
broken clouds at 8300 feet AGL
overcast cloud deck at 9000 feet AGL
Weather: no significant weather observed at this time

METAR text: EHGR 180255Z AUTO 07005KT 020V110 9999 OVC075 10/07 Q1023 BLU
Conditions at: EHGR (GILZE-RIJEN RNLA, NL) observed 0255 UTC 18 April 2019
Temperature: 10.0°C (50°F)
Dewpoint: 7.0°C (45°F) [RH = 82%]
Pressure (altimeter): 30.21 inches Hg (1023.0 mb)
Winds: from the ENE (70 degrees) at 6 MPH (5 knots; 2.6 m/s)
Visibility: 6 or more miles (10+ km)
Ceiling: 7500 feet AGL
Clouds: overcast cloud deck at 7500 feet AGL
Weather: no significant weather observed at this time

METAR text: EHGR 180225Z AUTO 07004KT 040V100 9999 FEW067 SCT093 08/06 Q1023 BLU
Conditions at: EHGR (GILZE-RIJEN RNLA, NL) observed 0225 UTC 18 April 2019
Temperature: 8.0°C (46°F)
Dewpoint: 6.0°C (43°F) [RH = 87%]
Pressure (altimeter): 30.21 inches Hg (1023.0 mb)
Winds: from the ENE (70 degrees) at 5 MPH (4 knots; 2.1 m/s)
Visibility: 6 or more miles (10+ km)
Ceiling: at least 12,000 feet AGL
Clouds: few clouds at 6700 feet AGL
scattered clouds at 9300 feet AGL
Weather: no significant weather observed at this time

METAR text: EHGR 180155Z AUTO 06004KT 020V110 9999 NCD 08/07 Q1023 BLU
Conditions at: EHGR (GILZE-RIJEN RNLA, NL) observed 0155 UTC 18 April 2019
Temperature: 8.0°C (46°F)
Dewpoint: 7.0°C (45°F) [RH = 93%]
Pressure (altimeter): 30.21 inches Hg (1023.0 mb)
Winds: from the ENE (60 degrees) at 5 MPH (4 knots; 2.1 m/s)
Visibility: 6 or more miles (10+ km)
Ceiling: at least 12,000 feet AGL
Clouds: sky clear below 12,000 feet AGL
Weather: no significant weather observed at this time

METAR text: EHGR 180136Z AUTO 06004KT 020V100 9000 BR NCD 08/07 Q1023 BLU
Conditions at: EHGR (GILZE-RIJEN RNLA, NL) observed 0136 UTC 18 April 2019
Temperature: 8.0°C (46°F)
Dewpoint: 7.0°C (45°F) [RH = 93%]
Pressure (altimeter): 30.21 inches Hg (1023.0 mb)
Winds: from the ENE (60 degrees) at 5 MPH (4 knots; 2.1 m/s)
Visibility: 6 miles ( 9 km)
Ceiling: at least 12,000 feet AGL
Clouds: sky clear below 12,000 feet AGL
Weather: BR  (mist)

METAR text: EHGR 180125Z AUTO 06003KT 8000 BR NCD 08/06 Q1023 BLU
Conditions at: EHGR (GILZE-RIJEN RNLA, NL) observed 0125 UTC 18 April 2019
Temperature: 8.0°C (46°F)
Dewpoint: 6.0°C (43°F) [RH = 87%]
Pressure (altimeter): 30.21 inches Hg (1023.0 mb)
Winds: from the ENE (60 degrees) at 3 MPH (3 knots; 1.5 m/s)
Visibility: 5 miles ( 8 km)
Ceiling: at least 12,000 feet AGL
Clouds: sky clear below 12,000 feet AGL
Weather: BR  (mist)

METAR text: EHGR 180055Z AUTO 07003KT 030V120 9000 BR NCD 09/08 Q1023 BLU
Conditions at: EHGR (GILZE-RIJEN RNLA, NL) observed 0055 UTC 18 April 2019
Temperature: 9.0°C (48°F)
Dewpoint: 8.0°C (46°F) [RH = 93%]
Pressure (altimeter): 30.21 inches Hg (1023.0 mb)
Winds: from the ENE (70 degrees) at 3 MPH (3 knots; 1.5 m/s)
Visibility: 6 miles ( 9 km)
Ceiling: at least 12,000 feet AGL
Clouds: sky clear below 12,000 feet AGL
Weather: BR  (mist)

METAR text: EHGR 180025Z AUTO 08003KT 050V120 8000 BR NCD 09/08 Q1023 BLU
Conditions at: EHGR (GILZE-RIJEN RNLA, NL) observed 0025 UTC 18 April 2019
Temperature: 9.0°C (48°F)
Dewpoint: 8.0°C (46°F) [RH = 93%]
Pressure (altimeter): 30.21 inches Hg (1023.0 mb)
Winds: from the E (80 degrees) at 3 MPH (3 knots; 1.5 m/s)
Visibility: 5 miles ( 8 km)
Ceiling: at least 12,000 feet AGL
Clouds: sky clear below 12,000 feet AGL
Weather: BR  (mist)

METAR text: EHGR 172355Z AUTO 06003KT 020V100 8000 BR NCD 09/08 Q1023 BLU
Conditions at: EHGR (GILZE-RIJEN RNLA, NL) observed 2355 UTC 17 April 2019
Temperature: 9.0°C (48°F)
Dewpoint: 8.0°C (46°F) [RH = 93%]
Pressure (altimeter): 30.21 inches Hg (1023.0 mb)
Winds: from the ENE (60 degrees) at 3 MPH (3 knots; 1.5 m/s)
Visibility: 5 miles ( 8 km)
Ceiling: at least 12,000 feet AGL
Clouds: sky clear below 12,000 feet AGL
Weather: BR  (mist)

METAR text: EHGR 172338Z AUTO 03003KT 010V100 8000 BR FEW090 09/08 Q1023 BLU
Conditions at: EHGR (GILZE-RIJEN RNLA, NL) observed 2338 UTC 17 April 2019
Temperature: 9.0°C (48°F)
Dewpoint: 8.0°C (46°F) [RH = 93%]
Pressure (altimeter): 30.21 inches Hg (1023.0 mb)
Winds: from the NNE (30 degrees) at 3 MPH (3 knots; 1.5 m/s)
Visibility: 5 miles ( 8 km)
Ceiling: at least 12,000 feet AGL
Clouds: few clouds at 9000 feet AGL
Weather: BR  (mist)

METAR text: EHGR 172325Z AUTO VRB02KT 7000 BR OVC088 09/09 Q1023 WHT
Conditions at: EHGR (GILZE-RIJEN RNLA, NL) observed 2325 UTC 17 April 2019
Temperature: 9.0°C (48°F)
Dewpoint: 9.0°C (48°F) [RH = 100%]
Pressure (altimeter): 30.21 inches Hg (1023.0 mb)
Winds: variable direction winds at 2 MPH (2 knots; 1.0 m/s)
Visibility: 4 miles ( 7 km)
Ceiling: 8800 feet AGL
Clouds: overcast cloud deck at 8800 feet AGL
Weather: BR  (mist)

METAR text: EHGR 172318Z AUTO VRB02KT 8000 BR OVC088 09/09 Q1023 BLU
Conditions at: EHGR (GILZE-RIJEN RNLA, NL) observed 2318 UTC 17 April 2019
Temperature: 9.0°C (48°F)
Dewpoint: 9.0°C (48°F) [RH = 100%]
Pressure (altimeter): 30.21 inches Hg (1023.0 mb)
Winds: variable direction winds at 2 MPH (2 knots; 1.0 m/s)
Visibility: 5 miles ( 8 km)
Ceiling: 8800 feet AGL
Clouds: overcast cloud deck at 8800 feet AGL
Weather: BR  (mist)

METAR text: EHGR 172312Z AUTO 04003KT 020V100 6000 BR BKN087 09/09 Q1023 WHT
Conditions at: EHGR (GILZE-RIJEN RNLA, NL) observed 2312 UTC 17 April 2019
Temperature: 9.0°C (48°F)
Dewpoint: 9.0°C (48°F) [RH = 100%]
Pressure (altimeter): 30.21 inches Hg (1023.0 mb)
Winds: from the NE (40 degrees) at 3 MPH (3 knots; 1.5 m/s)
Visibility: 4 miles ( 6 km)
Ceiling: 8700 feet AGL
Clouds: broken clouds at 8700 feet AGL
Weather: BR  (mist)

METAR text: EHGR 172308Z AUTO 03003KT 020V100 9000 BR SCT087 09/09 Q1023 BLU
Conditions at: EHGR (GILZE-RIJEN RNLA, NL) observed 2308 UTC 17 April 2019
Temperature: 9.0°C (48°F)
Dewpoint: 9.0°C (48°F) [RH = 100%]
Pressure (altimeter): 30.21 inches Hg (1023.0 mb)
Winds: from the NNE (30 degrees) at 3 MPH (3 knots; 1.5 m/s)
Visibility: 6 miles ( 9 km)
Ceiling: at least 12,000 feet AGL
Clouds: scattered clouds at 8700 feet AGL
Weather: BR  (mist)

METAR text: EHGR 172255Z AUTO 02004KT 8000 BR FEW086 09/08 Q1023 BLU
Conditions at: EHGR (GILZE-RIJEN RNLA, NL) observed 2255 UTC 17 April 2019
Temperature: 9.0°C (48°F)
Dewpoint: 8.0°C (46°F) [RH = 93%]
Pressure (altimeter): 30.21 inches Hg (1023.0 mb)
Winds: from the NNE (20 degrees) at 5 MPH (4 knots; 2.1 m/s)
Visibility: 5 miles ( 8 km)
Ceiling: at least 12,000 feet AGL
Clouds: few clouds at 8600 feet AGL
Weather: BR  (mist)

METAR text: EHGR 172251Z AUTO 02004KT 350V050 8000 BR FEW080 09/08 Q1023 BLU
Conditions at: EHGR (GILZE-RIJEN RNLA, NL) observed 2251 UTC 17 April 2019
Temperature: 9.0°C (48°F)
Dewpoint: 8.0°C (46°F) [RH = 93%]
Pressure (altimeter): 30.21 inches Hg (1023.0 mb)
Winds: from the NNE (20 degrees) at 5 MPH (4 knots; 2.1 m/s)
Visibility: 5 miles ( 8 km)
Ceiling: at least 12,000 feet AGL
Clouds: few clouds at 8000 feet AGL
Weather: BR  (mist)

METAR text: EHGR 172247Z AUTO 02004KT 7000 BR FEW080 09/09 Q1023 WHT
Conditions at: EHGR (GILZE-RIJEN RNLA, NL) observed 2247 UTC 17 April 2019
Temperature: 9.0°C (48°F)
Dewpoint: 9.0°C (48°F) [RH = 100%]
Pressure (altimeter): 30.21 inches Hg (1023.0 mb)
Winds: from the NNE (20 degrees) at 5 MPH (4 knots; 2.1 m/s)
Visibility: 4 miles ( 7 km)
Ceiling: at least 12,000 feet AGL
Clouds: few clouds at 8000 feet AGL
Weather: BR  (mist)

METAR text: EHGR 172243Z AUTO 02003KT 8000 BR SCT080 09/09 Q1023 BLU
Conditions at: EHGR (GILZE-RIJEN RNLA, NL) observed 2243 UTC 17 April 2019
Temperature: 9.0°C (48°F)
Dewpoint: 9.0°C (48°F) [RH = 100%]
Pressure (altimeter): 30.21 inches Hg (1023.0 mb)
Winds: from the NNE (20 degrees) at 3 MPH (3 knots; 1.5 m/s)
Visibility: 5 miles ( 8 km)
Ceiling: at least 12,000 feet AGL
Clouds: scattered clouds at 8000 feet AGL
Weather: BR  (mist)

METAR text: EHGR 172238Z AUTO 02003KT 7000 BR FEW074 SCT079 09/09 Q1023 WHT
Conditions at: EHGR (GILZE-RIJEN RNLA, NL) observed 2238 UTC 17 April 2019
Temperature: 9.0°C (48°F)
Dewpoint: 9.0°C (48°F) [RH = 100%]
Pressure (altimeter): 30.21 inches Hg (1023.0 mb)
Winds: from the NNE (20 degrees) at 3 MPH (3 knots; 1.5 m/s)
Visibility: 4 miles ( 7 km)
Ceiling: at least 12,000 feet AGL
Clouds: few clouds at 7400 feet AGL
scattered clouds at 7900 feet AGL
Weather: BR  (mist)

METAR text: EHGR 172229Z AUTO VRB03KT 9000 BR FEW072 09/08 Q1023 BLU
Conditions at: EHGR (GILZE-RIJEN RNLA, NL) observed 2229 UTC 17 April 2019
Temperature: 9.0°C (48°F)
Dewpoint: 8.0°C (46°F) [RH = 93%]
Pressure (altimeter): 30.21 inches Hg (1023.0 mb)
Winds: variable direction winds at 3 MPH (3 knots; 1.5 m/s)
Visibility: 6 miles ( 9 km)
Ceiling: at least 12,000 feet AGL
Clouds: few clouds at 7200 feet AGL
Weather: BR  (mist)

METAR text: EHGR 172225Z AUTO VRB03KT 7000 BR SCT071 09/09 Q1023 WHT
Conditions at: EHGR (GILZE-RIJEN RNLA, NL) observed 2225 UTC 17 April 2019
Temperature: 9.0°C (48°F)
Dewpoint: 9.0°C (48°F) [RH = 100%]
Pressure (altimeter): 30.21 inches Hg (1023.0 mb)
Winds: variable direction winds at 3 MPH (3 knots; 1.5 m/s)
Visibility: 4 miles ( 7 km)
Ceiling: at least 12,000 feet AGL
Clouds: scattered clouds at 7100 feet AGL
Weather: BR  (mist)

METAR text: EHGR 172207Z AUTO VRB02KT 7000 BR FEW070 08/08 Q1023 WHT
Conditions at: EHGR (GILZE-RIJEN RNLA, NL) observed 2207 UTC 17 April 2019
Temperature: 8.0°C (46°F)
Dewpoint: 8.0°C (46°F) [RH = 100%]
Pressure (altimeter): 30.21 inches Hg (1023.0 mb)
Winds: variable direction winds at 2 MPH (2 knots; 1.0 m/s)
Visibility: 4 miles ( 7 km)
Ceiling: at least 12,000 feet AGL
Clouds: few clouds at 7000 feet AGL
Weather: BR  (mist)

METAR text: EHGR 172206Z AUTO VRB01KT 8000 BR NCD 08/08 Q1023 BLU
Conditions at: EHGR (GILZE-RIJEN RNLA, NL) observed 2206 UTC 17 April 2019
Temperature: 8.0°C (46°F)
Dewpoint: 8.0°C (46°F) [RH = 100%]
Pressure (altimeter): 30.21 inches Hg (1023.0 mb)
Winds: variable direction winds at 1 MPH (1 knots; 0.5 m/s)
Visibility: 5 miles ( 8 km)
Ceiling: at least 12,000 feet AGL
Clouds: sky clear below 12,000 feet AGL
Weather: BR  (mist)

METAR text: EHGR 172155Z AUTO VRB01KT 5000 BR NCD 08/08 Q1023 WHT
Conditions at: EHGR (GILZE-RIJEN RNLA, NL) observed 2155 UTC 17 April 2019
Temperature: 8.0°C (46°F)
Dewpoint: 8.0°C (46°F) [RH = 100%]
Pressure (altimeter): 30.21 inches Hg (1023.0 mb)
Winds: variable direction winds at 1 MPH (1 knots; 0.5 m/s)
Visibility: 3 miles ( 5 km)
Ceiling: at least 12,000 feet AGL
Clouds: sky clear below 12,000 feet AGL
Weather: BR  (mist)

METAR text: EHGR 172129Z AUTO 01001KT 4900 BR NCD 08/08 Q1023 GRN
Conditions at: EHGR (GILZE-RIJEN RNLA, NL) observed 2129 UTC 17 April 2019
Temperature: 8.0°C (46°F)
Dewpoint: 8.0°C (46°F) [RH = 100%]
Pressure (altimeter): 30.21 inches Hg (1023.0 mb)
Winds: from the N (10 degrees) at 1 MPH (1 knots; 0.5 m/s)
Visibility: 3 miles ( 5 km)
Ceiling: at least 12,000 feet AGL
Clouds: sky clear below 12,000 feet AGL
Weather: BR  (mist)

METAR text: EHGR 172125Z AUTO 35001KT 5000 BR NCD 08/08 Q1023 WHT
Conditions at: EHGR (GILZE-RIJEN RNLA, NL) observed 2125 UTC 17 April 2019
Temperature: 8.0°C (46°F)
Dewpoint: 8.0°C (46°F) [RH = 100%]
Pressure (altimeter): 30.21 inches Hg (1023.0 mb)
Winds: from the N (350 degrees) at 1 MPH (1 knots; 0.5 m/s)
Visibility: 3 miles ( 5 km)
Ceiling: at least 12,000 feet AGL
Clouds: sky clear below 12,000 feet AGL
Weather: BR  (mist)

METAR text: EHGR 172118Z AUTO 34001KT 5000 BR NCD 09/08 Q1023 WHT
Conditions at: EHGR (GILZE-RIJEN RNLA, NL) observed 2118 UTC 17 April 2019
Temperature: 9.0°C (48°F)
Dewpoint: 8.0°C (46°F) [RH = 93%]
Pressure (altimeter): 30.21 inches Hg (1023.0 mb)
Winds: from the NNW (340 degrees) at 1 MPH (1 knots; 0.5 m/s)
Visibility: 3 miles ( 5 km)
Ceiling: at least 12,000 feet AGL
Clouds: sky clear below 12,000 feet AGL
Weather: BR  (mist)

METAR text: EHGR 172105Z AUTO 01001KT 4600 BR NCD 09/09 Q1023 GRN
Conditions at: EHGR (GILZE-RIJEN RNLA, NL) observed 2105 UTC 17 April 2019
Temperature: 9.0°C (48°F)
Dewpoint: 9.0°C (48°F) [RH = 100%]
Pressure (altimeter): 30.21 inches Hg (1023.0 mb)
Winds: from the N (10 degrees) at 1 MPH (1 knots; 0.5 m/s)
Visibility: 2.86 miles (4.60 km)
Ceiling: at least 12,000 feet AGL
Clouds: sky clear below 12,000 feet AGL
Weather: BR  (mist)

METAR text: EHGR 172100Z AUTO 02001KT 3100 BR NCD 09/09 Q1023 YLO
Conditions at: EHGR (GILZE-RIJEN RNLA, NL) observed 2100 UTC 17 April 2019
Temperature: 9.0°C (48°F)
Dewpoint: 9.0°C (48°F) [RH = 100%]
Pressure (altimeter): 30.21 inches Hg (1023.0 mb)
Winds: from the NNE (20 degrees) at 1 MPH (1 knots; 0.5 m/s)
Visibility: 1.93 miles (3.11 km)
Ceiling: at least 12,000 feet AGL
Clouds: sky clear below 12,000 feet AGL
Weather: BR  (mist)

METAR text: EHGR 172057Z AUTO 02002KT 5000 BR NCD 09/09 Q1023 WHT 11006KT 7000 BR NSC
Conditions at: EHGR (GILZE-RIJEN RNLA, NL) observed 2057 UTC 17 April 2019
Temperature: 9.0°C (48°F)
Dewpoint: 9.0°C (48°F) [RH = 100%]
Pressure (altimeter): 30.21 inches Hg (1023.0 mb)
Winds: from the NNE (20 degrees) at 2 MPH (2 knots; 1.0 m/s)
Visibility: 3 miles ( 5 km)
Ceiling: at least 12,000 feet AGL
Clouds: sky clear below 12,000 feet AGL
Weather: BR BR  (mist, mist)

METAR text: EHGR 172055Z AUTO 03002KT 4800 BR NCD 09/09 Q1023 GRN 11006KT 7000 BR NSC
Conditions at: EHGR (GILZE-RIJEN RNLA, NL) observed 2055 UTC 17 April 2019
Temperature: 9.0°C (48°F)
Dewpoint: 9.0°C (48°F) [RH = 100%]
Pressure (altimeter): 30.21 inches Hg (1023.0 mb)
Winds: from the NNE (30 degrees) at 2 MPH (2 knots; 1.0 m/s)
Visibility: 2.98 miles (4.80 km)
Ceiling: at least 12,000 feet AGL
Clouds: sky clear below 12,000 feet AGL
Weather: BR BR  (mist, mist)

METAR text: EHGR 172046Z AUTO 03002KT 4700 BR NCD 09/09 Q1022 GRN 11006KT 7000 BR NSC
Conditions at: EHGR (GILZE-RIJEN RNLA, NL) observed 2046 UTC 17 April 2019
Temperature: 9.0°C (48°F)
Dewpoint: 9.0°C (48°F) [RH = 100%]
Pressure (altimeter): 30.18 inches Hg (1022.0 mb)
Winds: from the NNE (30 degrees) at 2 MPH (2 knots; 1.0 m/s)
Visibility: 2.92 miles (4.70 km)
Ceiling: at least 12,000 feet AGL
Clouds: sky clear below 12,000 feet AGL
Weather: BR BR  (mist, mist)

METAR text: EHGR 172041Z AUTO 03002KT 5000 BR NCD 09/09 Q1023 WHT 11006KT 7000 BR NSC
Conditions at: EHGR (GILZE-RIJEN RNLA, NL) observed 2041 UTC 17 April 2019
Temperature: 9.0°C (48°F)
Dewpoint: 9.0°C (48°F) [RH = 100%]
Pressure (altimeter): 30.21 inches Hg (1023.0 mb)
Winds: from the NNE (30 degrees) at 2 MPH (2 knots; 1.0 m/s)
Visibility: 3 miles ( 5 km)
Ceiling: at least 12,000 feet AGL
Clouds: sky clear below 12,000 feet AGL
Weather: BR BR  (mist, mist)

METAR text: EHGR 172035Z AUTO 02002KT 4700 BR NCD 09/09 Q1023 GRN 11006KT 7000 BR NSC
Conditions at: EHGR (GILZE-RIJEN RNLA, NL) observed 2035 UTC 17 April 2019
Temperature: 9.0°C (48°F)
Dewpoint: 9.0°C (48°F) [RH = 100%]
Pressure (altimeter): 30.21 inches Hg (1023.0 mb)
Winds: from the NNE (20 degrees) at 2 MPH (2 knots; 1.0 m/s)
Visibility: 2.92 miles (4.70 km)
Ceiling: at least 12,000 feet AGL
Clouds: sky clear below 12,000 feet AGL
Weather: BR BR  (mist, mist)

METAR text: EHGR 172025Z AUTO 02003KT 010V070 5000 BR NCD 09/09 Q1022 WHT 11006KT 7000 BR NSC
Conditions at: EHGR (GILZE-RIJEN RNLA, NL) observed 2025 UTC 17 April 2019
Temperature: 9.0°C (48°F)
Dewpoint: 9.0°C (48°F) [RH = 100%]
Pressure (altimeter): 30.18 inches Hg (1022.0 mb)
Winds: from the NNE (20 degrees) at 3 MPH (3 knots; 1.5 m/s)
Visibility: 3 miles ( 5 km)
Ceiling: at least 12,000 feet AGL
Clouds: sky clear below 12,000 feet AGL
Weather: BR BR  (mist, mist)

METAR text: EHGR 171955Z AUTO 03003KT 010V070 5000 BR NCD 10/09 Q1022 WHT 11006KT 7000 BR NSC
Conditions at: EHGR (GILZE-RIJEN RNLA, NL) observed 1955 UTC 17 April 2019
Temperature: 10.0°C (50°F)
Dewpoint: 9.0°C (48°F) [RH = 93%]
Pressure (altimeter): 30.18 inches Hg (1022.0 mb)
Winds: from the NNE (30 degrees) at 3 MPH (3 knots; 1.5 m/s)
Visibility: 3 miles ( 5 km)
Ceiling: at least 12,000 feet AGL
Clouds: sky clear below 12,000 feet AGL
Weather: BR BR  (mist, mist)

METAR text: EHGR 171926Z AUTO 06003KT 020V090 7000 BR NCD 10/09 Q1022 WHT 11006KT 7000 BR NSC
Conditions at: EHGR (GILZE-RIJEN RNLA, NL) observed 1926 UTC 17 April 2019
Temperature: 10.0°C (50°F)
Dewpoint: 9.0°C (48°F) [RH = 93%]
Pressure (altimeter): 30.18 inches Hg (1022.0 mb)
Winds: from the ENE (60 degrees) at 3 MPH (3 knots; 1.5 m/s)
Visibility: 4 miles ( 7 km)
Ceiling: at least 12,000 feet AGL
Clouds: sky clear below 12,000 feet AGL
Weather: BR BR  (mist, mist)

METAR text: EHGR 171925Z AUTO 06004KT 030V100 8000 BR NCD 10/09 Q1022 BLU 11006KT 7000 BR NSC
Conditions at: EHGR (GILZE-RIJEN RNLA, NL) observed 1925 UTC 17 April 2019
Temperature: 10.0°C (50°F)
Dewpoint: 9.0°C (48°F) [RH = 93%]
Pressure (altimeter): 30.18 inches Hg (1022.0 mb)
Winds: from the ENE (60 degrees) at 5 MPH (4 knots; 2.1 m/s)
Visibility: 5 miles ( 8 km)
Ceiling: at least 12,000 feet AGL
Clouds: sky clear below 12,000 feet AGL
Weather: BR BR  (mist, mist)

METAR text: EHGR 171906Z AUTO 06003KT 030V090 8000 BR NCD 10/09 Q1022 BLU 11006KT 7000 BR NSC
Conditions at: EHGR (GILZE-RIJEN RNLA, NL) observed 1906 UTC 17 April 2019
Temperature: 10.0°C (50°F)
Dewpoint: 9.0°C (48°F) [RH = 93%]
Pressure (altimeter): 30.18 inches Hg (1022.0 mb)
Winds: from the ENE (60 degrees) at 3 MPH (3 knots; 1.5 m/s)
Visibility: 5 miles ( 8 km)
Ceiling: at least 12,000 feet AGL
Clouds: sky clear below 12,000 feet AGL
Weather: BR BR  (mist, mist)

METAR text: EHGR 171902Z AUTO VRB02KT 7000 BR NCD 11/09 Q1022 WHT 11006KT 7000 BR NSC
Conditions at: EHGR (GILZE-RIJEN RNLA, NL) observed 1902 UTC 17 April 2019
Temperature: 11.0°C (52°F)
Dewpoint: 9.0°C (48°F) [RH = 87%]
Pressure (altimeter): 30.18 inches Hg (1022.0 mb)
Winds: variable direction winds at 2 MPH (2 knots; 1.0 m/s)
Visibility: 4 miles ( 7 km)
Ceiling: at least 12,000 feet AGL
Clouds: sky clear below 12,000 feet AGL
Weather: BR BR  (mist, mist)

METAR text: EHGR 171855Z AUTO 06003KT 020V090 8000 BR NCD 11/10 Q1022 BLU 11006KT 7000 BR NSC
Conditions at: EHGR (GILZE-RIJEN RNLA, NL) observed 1855 UTC 17 April 2019
Temperature: 11.0°C (52°F)
Dewpoint: 10.0°C (50°F) [RH = 94%]
Pressure (altimeter): 30.18 inches Hg (1022.0 mb)
Winds: from the ENE (60 degrees) at 3 MPH (3 knots; 1.5 m/s)
Visibility: 5 miles ( 8 km)
Ceiling: at least 12,000 feet AGL
Clouds: sky clear below 12,000 feet AGL
Weather: BR BR  (mist, mist)

METAR text: EHGR 171825Z AUTO 05004KT 010V070 9000 BR FEW072 11/09 Q1022 BLU 11006KT CAVOK
Conditions at: EHGR (GILZE-RIJEN RNLA, NL) observed 1825 UTC 17 April 2019
Temperature: 11.0°C (52°F)
Dewpoint: 9.0°C (48°F) [RH = 87%]
Pressure (altimeter): 30.18 inches Hg (1022.0 mb)
Winds: from the NE (50 degrees) at 5 MPH (4 knots; 2.1 m/s)
Visibility: 6 or more miles (10+ km)
Ceiling: at least 12,000 feet AGL
Clouds: few clouds at 7200 feet AGL
Weather: BR  (mist)

METAR text: EHGR 171755Z AUTO 08003KT 030V100 9999 SCT073 13/10 Q1022 BLU 11006KT CAVOK
Conditions at: EHGR (GILZE-RIJEN RNLA, NL) observed 1755 UTC 17 April 2019
Temperature: 13.0°C (55°F)
Dewpoint: 10.0°C (50°F) [RH = 82%]
Pressure (altimeter): 30.18 inches Hg (1022.0 mb)
Winds: from the E (80 degrees) at 3 MPH (3 knots; 1.5 m/s)
Visibility: 6 or more miles (10+ km)
Ceiling: at least 12,000 feet AGL
Clouds: scattered clouds at 7300 feet AGL
Weather: no significant weather observed at this time

METAR text: EHGR 171725Z AUTO 07003KT 030V100 9999 FEW044 OVC061 14/10 Q1022 BLU 11006KT CAVOK
Conditions at: EHGR (GILZE-RIJEN RNLA, NL) observed 1725 UTC 17 April 2019
Temperature: 14.0°C (57°F)
Dewpoint: 10.0°C (50°F) [RH = 77%]
Pressure (altimeter): 30.18 inches Hg (1022.0 mb)
Winds: from the ENE (70 degrees) at 3 MPH (3 knots; 1.5 m/s)
Visibility: 6 or more miles (10+ km)
Ceiling: 6100 feet AGL
Clouds: few clouds at 4400 feet AGL
overcast cloud deck at 6100 feet AGL
Weather: no significant weather observed at this time

METAR text: EHGR 171655Z AUTO 10004KT 9000 HZ BKN058 OVC063 14/10 Q1022 BLU 11006KT CAVOK
Conditions at: EHGR (GILZE-RIJEN RNLA, NL) observed 1655 UTC 17 April 2019
Temperature: 14.0°C (57°F)
Dewpoint: 10.0°C (50°F) [RH = 77%]
Pressure (altimeter): 30.18 inches Hg (1022.0 mb)
Winds: from the E (100 degrees) at 5 MPH (4 knots; 2.1 m/s)
Visibility: 6 or more miles (10+ km)
Ceiling: 5800 feet AGL
Clouds: broken clouds at 5800 feet AGL
overcast cloud deck at 6300 feet AGL
Weather: HZ  (haze)

METAR text: EHGR 171625Z AUTO 10005KT 9000 HZ OVC061 14/09 Q1022 BLU 11006KT CAVOK
Conditions at: EHGR (GILZE-RIJEN RNLA, NL) observed 1625 UTC 17 April 2019
Temperature: 14.0°C (57°F)
Dewpoint: 9.0°C (48°F) [RH = 72%]
Pressure (altimeter): 30.18 inches Hg (1022.0 mb)
Winds: from the E (100 degrees) at 6 MPH (5 knots; 2.6 m/s)
Visibility: 6 or more miles (10+ km)
Ceiling: 6100 feet AGL
Clouds: overcast cloud deck at 6100 feet AGL
Weather: HZ  (haze)

METAR text: EHGR 171559Z AUTO 11006KT 9999 OVC062 15/09 Q1022 BLU 11006KT CAVOK
Conditions at: EHGR (GILZE-RIJEN RNLA, NL) observed 1559 UTC 17 April 2019
Temperature: 15.0°C (59°F)
Dewpoint: 9.0°C (48°F) [RH = 67%]
Pressure (altimeter): 30.18 inches Hg (1022.0 mb)
Winds: from the ESE (110 degrees) at 7 MPH (6 knots; 3.1 m/s)
Visibility: 6 or more miles (10+ km)
Ceiling: 6200 feet AGL
Clouds: overcast cloud deck at 6200 feet AGL
Weather: no significant weather observed at this time

METAR text: EHGR 171555Z AUTO 10006KT 060V140 9999 OVC061 15/09 Q1022 BLU
Conditions at: EHGR (GILZE-RIJEN RNLA, NL) observed 1555 UTC 17 April 2019
Temperature: 15.0°C (59°F)
Dewpoint: 9.0°C (48°F) [RH = 67%]
Pressure (altimeter): 30.18 inches Hg (1022.0 mb)
Winds: from the E (100 degrees) at 7 MPH (6 knots; 3.1 m/s)
Visibility: 6 or more miles (10+ km)
Ceiling: 6100 feet AGL
Clouds: overcast cloud deck at 6100 feet AGL
Weather: no significant weather observed at this time

METAR text: EHGR 171525Z AUTO 09005KT 050V130 9999 BKN057 OVC062 15/09 Q1022 BLU
Conditions at: EHGR (GILZE-RIJEN RNLA, NL) observed 1525 UTC 17 April 2019
Temperature: 15.0°C (59°F)
Dewpoint: 9.0°C (48°F) [RH = 67%]
Pressure (altimeter): 30.18 inches Hg (1022.0 mb)
Winds: from the E (90 degrees) at 6 MPH (5 knots; 2.6 m/s)
Visibility: 6 or more miles (10+ km)
Ceiling: 5700 feet AGL
Clouds: broken clouds at 5700 feet AGL
overcast cloud deck at 6200 feet AGL
Weather: no significant weather observed at this time

METAR text: EHGR 171455Z AUTO 08006KT 060V140 9999 BKN041 OVC070 15/09 Q1022 BLU
Conditions at: EHGR (GILZE-RIJEN RNLA, NL) observed 1455 UTC 17 April 2019
Temperature: 15.0°C (59°F)
Dewpoint: 9.0°C (48°F) [RH = 67%]
Pressure (altimeter): 30.18 inches Hg (1022.0 mb)
Winds: from the E (80 degrees) at 7 MPH (6 knots; 3.1 m/s)
Visibility: 6 or more miles (10+ km)
Ceiling: 4100 feet AGL
Clouds: broken clouds at 4100 feet AGL
overcast cloud deck at 7000 feet AGL
Weather: no significant weather observed at this time

METAR text: EHGR 171436Z AUTO 09006KT 050V130 9999 OVC037 15/10 Q1021 BLU
Conditions at: EHGR (GILZE-RIJEN RNLA, NL) observed 1436 UTC 17 April 2019
Temperature: 15.0°C (59°F)
Dewpoint: 10.0°C (50°F) [RH = 72%]
Pressure (altimeter): 30.15 inches Hg (1021.0 mb)
Winds: from the E (90 degrees) at 7 MPH (6 knots; 3.1 m/s)
Visibility: 6 or more miles (10+ km)
Ceiling: 3700 feet AGL
Clouds: overcast cloud deck at 3700 feet AGL
Weather: no significant weather observed at this time

METAR text: EHGR 171425Z AUTO 10007KT 070V140 9999 BKN037 OVC042 14/10 Q1022 BLU 11008KT FEW025 BKN045
Conditions at: EHGR (GILZE-RIJEN RNLA, NL) observed 1425 UTC 17 April 2019
Temperature: 14.0°C (57°F)
Dewpoint: 10.0°C (50°F) [RH = 77%]
Pressure (altimeter): 30.18 inches Hg (1022.0 mb)
Winds: from the E (100 degrees) at 8 MPH (7 knots; 3.6 m/s)
Visibility: 6 or more miles (10+ km)
Ceiling: 3700 feet AGL
Clouds: broken clouds at 3700 feet AGL
overcast cloud deck at 4200 feet AGL
few clouds at 2500 feet AGL
broken clouds at 4500 feet AGL
Weather: no significant weather observed at this time

METAR text: EHGR 171356Z AUTO 09007KT 070V130 9999 BKN045 OVC051 14/10 Q1021 BLU 11008KT FEW025 BKN045
Conditions at: EHGR (GILZE-RIJEN RNLA, NL) observed 1356 UTC 17 April 2019
Temperature: 14.0°C (57°F)
Dewpoint: 10.0°C (50°F) [RH = 77%]
Pressure (altimeter): 30.15 inches Hg (1021.0 mb)
Winds: from the E (90 degrees) at 8 MPH (7 knots; 3.6 m/s)
Visibility: 6 or more miles (10+ km)
Ceiling: 4500 feet AGL
Clouds: broken clouds at 4500 feet AGL
overcast cloud deck at 5100 feet AGL
few clouds at 2500 feet AGL
broken clouds at 4500 feet AGL
Weather: no significant weather observed at this time

METAR text: EHGR 171355Z AUTO 09007KT 070V130 9999 BKN045 OVC049 14/10 Q1021 BLU 11008KT SCT025 BKN060
Conditions at: EHGR (GILZE-RIJEN RNLA, NL) observed 1355 UTC 17 April 2019
Temperature: 14.0°C (57°F)
Dewpoint: 10.0°C (50°F) [RH = 77%]
Pressure (altimeter): 30.15 inches Hg (1021.0 mb)
Winds: from the E (90 degrees) at 8 MPH (7 knots; 3.6 m/s)
Visibility: 6 or more miles (10+ km)
Ceiling: 4500 feet AGL
Clouds: broken clouds at 4500 feet AGL
overcast cloud deck at 4900 feet AGL
scattered clouds at 2500 feet AGL
broken clouds at 6000 feet AGL
Weather: no significant weather observed at this time

METAR text: EHGR 171325Z AUTO 11006KT 9999 OVC035 14/10 Q1021 BLU 11008KT SCT025 BKN060
Conditions at: EHGR (GILZE-RIJEN RNLA, NL) observed 1325 UTC 17 April 2019
Temperature: 14.0°C (57°F)
Dewpoint: 10.0°C (50°F) [RH = 77%]
Pressure (altimeter): 30.15 inches Hg (1021.0 mb)
Winds: from the ESE (110 degrees) at 7 MPH (6 knots; 3.1 m/s)
Visibility: 6 or more miles (10+ km)
Ceiling: 3500 feet AGL
Clouds: overcast cloud deck at 3500 feet AGL
scattered clouds at 2500 feet AGL
broken clouds at 6000 feet AGL
Weather: no significant weather observed at this time

METAR text: EHGR 171255Z AUTO 12006KT 9999 FEW030 OVC034 13/10 Q1021 BLU 11008KT SCT025 BKN060
Conditions at: EHGR (GILZE-RIJEN RNLA, NL) observed 1255 UTC 17 April 2019
Temperature: 13.0°C (55°F)
Dewpoint: 10.0°C (50°F) [RH = 82%]
Pressure (altimeter): 30.15 inches Hg (1021.0 mb)
Winds: from the ESE (120 degrees) at 7 MPH (6 knots; 3.1 m/s)
Visibility: 6 or more miles (10+ km)
Ceiling: 3400 feet AGL
Clouds: few clouds at 3000 feet AGL
overcast cloud deck at 3400 feet AGL
scattered clouds at 2500 feet AGL
broken clouds at 6000 feet AGL
Weather: no significant weather observed at this time

METAR text: EHGR 171225Z AUTO 14007KT 110V170 9999 OVC031 13/10 Q1021 BLU 11008KT SCT025 BKN060
Conditions at: EHGR (GILZE-RIJEN RNLA, NL) observed 1225 UTC 17 April 2019
Temperature: 13.0°C (55°F)
Dewpoint: 10.0°C (50°F) [RH = 82%]
Pressure (altimeter): 30.15 inches Hg (1021.0 mb)
Winds: from the SE (140 degrees) at 8 MPH (7 knots; 3.6 m/s)
Visibility: 6 or more miles (10+ km)
Ceiling: 3100 feet AGL
Clouds: overcast cloud deck at 3100 feet AGL
scattered clouds at 2500 feet AGL
broken clouds at 6000 feet AGL
Weather: no significant weather observed at this time

METAR text: EHGR 171155Z AUTO 14007KT 9999 OVC030 14/09 Q1021 BLU 11008KT SCT025 BKN060
Conditions at: EHGR (GILZE-RIJEN RNLA, NL) observed 1155 UTC 17 April 2019
Temperature: 14.0°C (57°F)
Dewpoint: 9.0°C (48°F) [RH = 72%]
Pressure (altimeter): 30.15 inches Hg (1021.0 mb)
Winds: from the SE (140 degrees) at 8 MPH (7 knots; 3.6 m/s)
Visibility: 6 or more miles (10+ km)
Ceiling: 3000 feet AGL
Clouds: overcast cloud deck at 3000 feet AGL
scattered clouds at 2500 feet AGL
broken clouds at 6000 feet AGL
Weather: no significant weather observed at this time

METAR text: EHGR 171139Z AUTO 14006KT 080V180 9999 FEW024 SCT028 BKN033 14/09 Q1021 BLU 11008KT SCT025 BKN060
Conditions at: EHGR (GILZE-RIJEN RNLA, NL) observed 1139 UTC 17 April 2019
Temperature: 14.0°C (57°F)
Dewpoint: 9.0°C (48°F) [RH = 72%]
Pressure (altimeter): 30.15 inches Hg (1021.0 mb)
Winds: from the SE (140 degrees) at 7 MPH (6 knots; 3.1 m/s)
Visibility: 6 or more miles (10+ km)
Ceiling: 3300 feet AGL
Clouds: few clouds at 2400 feet AGL
scattered clouds at 2800 feet AGL
broken clouds at 3300 feet AGL
scattered clouds at 2500 feet AGL
Weather: no significant weather observed at this time

METAR text: EHGR 171129Z AUTO 15005KT 110V180 9999 SCT024 OVC032 14/09 Q1021 WHT 11008KT SCT025 BKN060
Conditions at: EHGR (GILZE-RIJEN RNLA, NL) observed 1129 UTC 17 April 2019
Temperature: 14.0°C (57°F)
Dewpoint: 9.0°C (48°F) [RH = 72%]
Pressure (altimeter): 30.15 inches Hg (1021.0 mb)
Winds: from the SSE (150 degrees) at 6 MPH (5 knots; 2.6 m/s)
Visibility: 6 or more miles (10+ km)
Ceiling: 3200 feet AGL
Clouds: scattered clouds at 2400 feet AGL
overcast cloud deck at 3200 feet AGL
scattered clouds at 2500 feet AGL
broken clouds at 6000 feet AGL
Weather: no significant weather observed at this time

METAR text: EHGR 171125Z AUTO 16006KT 120V180 9999 FEW025 OVC031 14/09 Q1021 BLU 11008KT SCT025 BKN060
Conditions at: EHGR (GILZE-RIJEN RNLA, NL) observed 1125 UTC 17 April 2019
Temperature: 14.0°C (57°F)
Dewpoint: 9.0°C (48°F) [RH = 72%]
Pressure (altimeter): 30.15 inches Hg (1021.0 mb)
Winds: from the SSE (160 degrees) at 7 MPH (6 knots; 3.1 m/s)
Visibility: 6 or more miles (10+ km)
Ceiling: 3100 feet AGL
Clouds: few clouds at 2500 feet AGL
overcast cloud deck at 3100 feet AGL
scattered clouds at 2500 feet AGL
broken clouds at 6000 feet AGL
Weather: no significant weather observed at this time

METAR text: EHGR 171055Z AUTO 12006KT 080V150 9999 BKN025 OVC029 15/09 Q1021 BLU 11008KT SCT025 BKN060
Conditions at: EHGR (GILZE-RIJEN RNLA, NL) observed 1055 UTC 17 April 2019
Temperature: 15.0°C (59°F)
Dewpoint: 9.0°C (48°F) [RH = 67%]
Pressure (altimeter): 30.15 inches Hg (1021.0 mb)
Winds: from the ESE (120 degrees) at 7 MPH (6 knots; 3.1 m/s)
Visibility: 6 or more miles (10+ km)
Ceiling: 2500 feet AGL
Clouds: broken clouds at 2500 feet AGL
overcast cloud deck at 2900 feet AGL
scattered clouds at 2500 feet AGL
broken clouds at 6000 feet AGL
Weather: no significant weather observed at this time

METAR text: EHGR 171035Z AUTO 10006KT 060V150 9999 FEW024 SCT043 OVC059 15/09 Q1021 BLU 11008KT SCT025 BKN060
Conditions at: EHGR (GILZE-RIJEN RNLA, NL) observed 1035 UTC 17 April 2019
Temperature: 15.0°C (59°F)
Dewpoint: 9.0°C (48°F) [RH = 67%]
Pressure (altimeter): 30.15 inches Hg (1021.0 mb)
Winds: from the E (100 degrees) at 7 MPH (6 knots; 3.1 m/s)
Visibility: 6 or more miles (10+ km)
Ceiling: 5900 feet AGL
Clouds: few clouds at 2400 feet AGL
scattered clouds at 4300 feet AGL
overcast cloud deck at 5900 feet AGL
scattered clouds at 2500 feet AGL
Weather: no significant weather observed at this time

METAR text: EHGR 171031Z AUTO 10006KT 080V160 9999 FEW023 SCT028 OVC061 15/09 Q1021 BLU 11008KT SCT025 BKN080
Conditions at: EHGR (GILZE-RIJEN RNLA, NL) observed 1031 UTC 17 April 2019
Temperature: 15.0°C (59°F)
Dewpoint: 9.0°C (48°F) [RH = 67%]
Pressure (altimeter): 30.15 inches Hg (1021.0 mb)
Winds: from the E (100 degrees) at 7 MPH (6 knots; 3.1 m/s)
Visibility: 6 or more miles (10+ km)
Ceiling: 6100 feet AGL
Clouds: few clouds at 2300 feet AGL
scattered clouds at 2800 feet AGL
overcast cloud deck at 6100 feet AGL
scattered clouds at 2500 feet AGL
Weather: no significant weather observed at this time

METAR text: EHGR 171025Z AUTO 10006KT 080V160 9999 FEW016 BKN023 OVC027 15/09 Q1021 WHT 11008KT SCT025 BKN080
Conditions at: EHGR (GILZE-RIJEN RNLA, NL) observed 1025 UTC 17 April 2019
Temperature: 15.0°C (59°F)
Dewpoint: 9.0°C (48°F) [RH = 67%]
Pressure (altimeter): 30.15 inches Hg (1021.0 mb)
Winds: from the E (100 degrees) at 7 MPH (6 knots; 3.1 m/s)
Visibility: 6 or more miles (10+ km)
Ceiling: 2300 feet AGL
Clouds: few clouds at 1600 feet AGL
broken clouds at 2300 feet AGL
overcast cloud deck at 2700 feet AGL
scattered clouds at 2500 feet AGL
Weather: no significant weather observed at this time

METAR text: EHGR 171011Z AUTO 09008KT 060V140 9999 SCT024 SCT028 OVC034 15/09 Q1021 WHT 11008KT SCT025 BKN080
Conditions at: EHGR (GILZE-RIJEN RNLA, NL) observed 1011 UTC 17 April 2019
Temperature: 15.0°C (59°F)
Dewpoint: 9.0°C (48°F) [RH = 67%]
Pressure (altimeter): 30.15 inches Hg (1021.0 mb)
Winds: from the E (90 degrees) at 9 MPH (8 knots; 4.1 m/s)
Visibility: 6 or more miles (10+ km)
Ceiling: 3400 feet AGL
Clouds: scattered clouds at 2400 feet AGL
scattered clouds at 2800 feet AGL
overcast cloud deck at 3400 feet AGL
scattered clouds at 2500 feet AGL
Weather: no significant weather observed at this time

METAR text: EHGR 171007Z AUTO 09008KT 070V140 9999 FEW023 SCT028 OVC033 15/09 Q1021 BLU 13005KT SCT020 BKN080
Conditions at: EHGR (GILZE-RIJEN RNLA, NL) observed 1007 UTC 17 April 2019
Temperature: 15.0°C (59°F)
Dewpoint: 9.0°C (48°F) [RH = 67%]
Pressure (altimeter): 30.15 inches Hg (1021.0 mb)
Winds: from the E (90 degrees) at 9 MPH (8 knots; 4.1 m/s)
Visibility: 6 or more miles (10+ km)
Ceiling: 3300 feet AGL
Clouds: few clouds at 2300 feet AGL
scattered clouds at 2800 feet AGL
overcast cloud deck at 3300 feet AGL
scattered clouds at 2000 feet AGL
Weather: no significant weather observed at this time

METAR text: EHGR 170959Z AUTO 11006KT 060V150 9999 BKN023 OVC027 15/09 Q1021 WHT 13005KT SCT020 BKN080
Conditions at: EHGR (GILZE-RIJEN RNLA, NL) observed 0959 UTC 17 April 2019
Temperature: 15.0°C (59°F)
Dewpoint: 9.0°C (48°F) [RH = 67%]
Pressure (altimeter): 30.15 inches Hg (1021.0 mb)
Winds: from the ESE (110 degrees) at 7 MPH (6 knots; 3.1 m/s)
Visibility: 6 or more miles (10+ km)
Ceiling: 2300 feet AGL
Clouds: broken clouds at 2300 feet AGL
overcast cloud deck at 2700 feet AGL
scattered clouds at 2000 feet AGL
broken clouds at 8000 feet AGL
Weather: no significant weather observed at this time

METAR text: EHGR 170955Z AUTO 11005KT 090V160 9999 FEW023 BKN026 OVC032 15/09 Q1021 BLU 13005KT SCT020 BKN080
Conditions at: EHGR (GILZE-RIJEN RNLA, NL) observed 0955 UTC 17 April 2019
Temperature: 15.0°C (59°F)
Dewpoint: 9.0°C (48°F) [RH = 67%]
Pressure (altimeter): 30.15 inches Hg (1021.0 mb)
Winds: from the ESE (110 degrees) at 6 MPH (5 knots; 2.6 m/s)
Visibility: 6 or more miles (10+ km)
Ceiling: 2600 feet AGL
Clouds: few clouds at 2300 feet AGL
broken clouds at 2600 feet AGL
overcast cloud deck at 3200 feet AGL
scattered clouds at 2000 feet AGL
Weather: no significant weather observed at this time

METAR text: EHGR 170951Z AUTO 10006KT 080V170 9999 FEW023 BKN026 BKN030 15/09 Q1021 BLU 13005KT SCT020 BKN080
Conditions at: EHGR (GILZE-RIJEN RNLA, NL) observed 0951 UTC 17 April 2019
Temperature: 15.0°C (59°F)
Dewpoint: 9.0°C (48°F) [RH = 67%]
Pressure (altimeter): 30.15 inches Hg (1021.0 mb)
Winds: from the E (100 degrees) at 7 MPH (6 knots; 3.1 m/s)
Visibility: 6 or more miles (10+ km)
Ceiling: 2600 feet AGL
Clouds: few clouds at 2300 feet AGL
broken clouds at 2600 feet AGL
broken clouds at 3000 feet AGL
scattered clouds at 2000 feet AGL
Weather: no significant weather observed at this time

METAR text: EHGR 170946Z AUTO 11006KT 080V170 9999 SCT022 BKN026 OVC068 15/09 Q1021 WHT 13005KT SCT020 BKN080
Conditions at: EHGR (GILZE-RIJEN RNLA, NL) observed 0946 UTC 17 April 2019
Temperature: 15.0°C (59°F)
Dewpoint: 9.0°C (48°F) [RH = 67%]
Pressure (altimeter): 30.15 inches Hg (1021.0 mb)
Winds: from the ESE (110 degrees) at 7 MPH (6 knots; 3.1 m/s)
Visibility: 6 or more miles (10+ km)
Ceiling: 2600 feet AGL
Clouds: scattered clouds at 2200 feet AGL
broken clouds at 2600 feet AGL
overcast cloud deck at 6800 feet AGL
scattered clouds at 2000 feet AGL
Weather: no significant weather observed at this time

METAR text: EHGR 170937Z AUTO 11007KT 080V180 9999 FEW022 BKN025 OVC071 15/09 Q1021 BLU 13005KT SCT020 BKN080
Conditions at: EHGR (GILZE-RIJEN RNLA, NL) observed 0937 UTC 17 April 2019
Temperature: 15.0°C (59°F)
Dewpoint: 9.0°C (48°F) [RH = 67%]
Pressure (altimeter): 30.15 inches Hg (1021.0 mb)
Winds: from the ESE (110 degrees) at 8 MPH (7 knots; 3.6 m/s)
Visibility: 6 or more miles (10+ km)
Ceiling: 2500 feet AGL
Clouds: few clouds at 2200 feet AGL
broken clouds at 2500 feet AGL
overcast cloud deck at 7100 feet AGL
scattered clouds at 2000 feet AGL
Weather: no significant weather observed at this time

METAR text: EHGR 170925Z AUTO 10007KT 080V150 9999 BKN020 BKN024 OVC077 15/10 Q1021 WHT 13005KT SCT020 BKN080
Conditions at: EHGR (GILZE-RIJEN RNLA, NL) observed 0925 UTC 17 April 2019
Temperature: 15.0°C (59°F)
Dewpoint: 10.0°C (50°F) [RH = 72%]
Pressure (altimeter): 30.15 inches Hg (1021.0 mb)
Winds: from the E (100 degrees) at 8 MPH (7 knots; 3.6 m/s)
Visibility: 6 or more miles (10+ km)
Ceiling: 2000 feet AGL
Clouds: broken clouds at 2000 feet AGL
broken clouds at 2400 feet AGL
overcast cloud deck at 7700 feet AGL
scattered clouds at 2000 feet AGL
Weather: no significant weather observed at this time

METAR text: EHGR 170909Z AUTO 10006KT 090V160 9999 FEW019 SCT023 BKN076 14/09 Q1021 WHT 13005KT SCT020 BKN080
Conditions at: EHGR (GILZE-RIJEN RNLA, NL) observed 0909 UTC 17 April 2019
Temperature: 14.0°C (57°F)
Dewpoint: 9.0°C (48°F) [RH = 72%]
Pressure (altimeter): 30.15 inches Hg (1021.0 mb)
Winds: from the E (100 degrees) at 7 MPH (6 knots; 3.1 m/s)
Visibility: 6 or more miles (10+ km)
Ceiling: 7600 feet AGL
Clouds: few clouds at 1900 feet AGL
scattered clouds at 2300 feet AGL
broken clouds at 7600 feet AGL
scattered clouds at 2000 feet AGL
Weather: no significant weather observed at this time

METAR text: EHGR 170901Z AUTO 11006KT 9999 FEW019 SCT073 OVC084 14/09 Q1021 BLU 13005KT SCT020 BKN080
Conditions at: EHGR (GILZE-RIJEN RNLA, NL) observed 0901 UTC 17 April 2019
Temperature: 14.0°C (57°F)
Dewpoint: 9.0°C (48°F) [RH = 72%]
Pressure (altimeter): 30.15 inches Hg (1021.0 mb)
Winds: from the ESE (110 degrees) at 7 MPH (6 knots; 3.1 m/s)
Visibility: 6 or more miles (10+ km)
Ceiling: 8400 feet AGL
Clouds: few clouds at 1900 feet AGL
scattered clouds at 7300 feet AGL
overcast cloud deck at 8400 feet AGL
scattered clouds at 2000 feet AGL
Weather: no significant weather observed at this time

METAR text: EHGR 170855Z AUTO 12005KT 090V160 9999 BKN018 BKN072 OVC088 14/09 Q1021 WHT 13005KT SCT020 BKN080
Conditions at: EHGR (GILZE-RIJEN RNLA, NL) observed 0855 UTC 17 April 2019
Temperature: 14.0°C (57°F)
Dewpoint: 9.0°C (48°F) [RH = 72%]
Pressure (altimeter): 30.15 inches Hg (1021.0 mb)
Winds: from the ESE (120 degrees) at 6 MPH (5 knots; 2.6 m/s)
Visibility: 6 or more miles (10+ km)
Ceiling: 1800 feet AGL
Clouds: broken clouds at 1800 feet AGL
broken clouds at 7200 feet AGL
overcast cloud deck at 8800 feet AGL
scattered clouds at 2000 feet AGL
Weather: no significant weather observed at this time

METAR text: EHGR 170848Z AUTO 13005KT 090V150 9999 SCT018 BKN072 OVC089 14/10 Q1021 WHT 13005KT SCT020 BKN080
Conditions at: EHGR (GILZE-RIJEN RNLA, NL) observed 0848 UTC 17 April 2019
Temperature: 14.0°C (57°F)
Dewpoint: 10.0°C (50°F) [RH = 77%]
Pressure (altimeter): 30.15 inches Hg (1021.0 mb)
Winds: from the SE (130 degrees) at 6 MPH (5 knots; 2.6 m/s)
Visibility: 6 or more miles (10+ km)
Ceiling: 7200 feet AGL
Clouds: scattered clouds at 1800 feet AGL
broken clouds at 7200 feet AGL
overcast cloud deck at 8900 feet AGL
scattered clouds at 2000 feet AGL
Weather: no significant weather observed at this time

METAR text: EHGR 170825Z AUTO 13005KT 080V180 9999 OVC085 14/09 Q1021 BLU 13005KT SCT020 BKN080
Conditions at: EHGR (GILZE-RIJEN RNLA, NL) observed 0825 UTC 17 April 2019
Temperature: 14.0°C (57°F)
Dewpoint: 9.0°C (48°F) [RH = 72%]
Pressure (altimeter): 30.15 inches Hg (1021.0 mb)
Winds: from the SE (130 degrees) at 6 MPH (5 knots; 2.6 m/s)
Visibility: 6 or more miles (10+ km)
Ceiling: 8500 feet AGL
Clouds: overcast cloud deck at 8500 feet AGL
scattered clouds at 2000 feet AGL
broken clouds at 8000 feet AGL
Weather: no significant weather observed at this time

METAR text: EHGR 170814Z AUTO 12004KT 090V160 9999 OVC085 13/10 Q1021 BLU 13005KT SCT020 BKN080
Conditions at: EHGR (GILZE-RIJEN RNLA, NL) observed 0814 UTC 17 April 2019
Temperature: 13.0°C (55°F)
Dewpoint: 10.0°C (50°F) [RH = 82%]
Pressure (altimeter): 30.15 inches Hg (1021.0 mb)
Winds: from the ESE (120 degrees) at 5 MPH (4 knots; 2.1 m/s)
Visibility: 6 or more miles (10+ km)
Ceiling: 8500 feet AGL
Clouds: overcast cloud deck at 8500 feet AGL
scattered clouds at 2000 feet AGL
broken clouds at 8000 feet AGL
Weather: no significant weather observed at this time

METAR text: EHGR 170755Z AUTO 14005KT 100V180 9999 BKN100 OVC310 13/09 Q1020 BLU 13005KT SCT020 SCT050 BKN090
Conditions at: EHGR (GILZE-RIJEN RNLA, NL) observed 0755 UTC 17 April 2019
Temperature: 13.0°C (55°F)
Dewpoint: 9.0°C (48°F) [RH = 77%]
Pressure (altimeter): 30.12 inches Hg (1020.0 mb)
Winds: from the SE (140 degrees) at 6 MPH (5 knots; 2.6 m/s)
Visibility: 6 or more miles (10+ km)
Ceiling: 10000 feet AGL
Clouds: broken clouds at 10000 feet AGL
overcast cloud deck at 31000 feet AGL
scattered clouds at 2000 feet AGL
scattered clouds at 5000 feet AGL
Weather: no significant weather observed at this time

METAR text: EHGR 170746Z AUTO 14006KT 100V180 9999 SCT090 OVC100 13/09 Q1020 BLU 13005KT SCT020 SCT050 BKN090
Conditions at: EHGR (GILZE-RIJEN RNLA, NL) observed 0746 UTC 17 April 2019
Temperature: 13.0°C (55°F)
Dewpoint: 9.0°C (48°F) [RH = 77%]
Pressure (altimeter): 30.12 inches Hg (1020.0 mb)
Winds: from the SE (140 degrees) at 7 MPH (6 knots; 3.1 m/s)
Visibility: 6 or more miles (10+ km)
Ceiling: 10000 feet AGL
Clouds: scattered clouds at 9000 feet AGL
overcast cloud deck at 10000 feet AGL
scattered clouds at 2000 feet AGL
scattered clouds at 5000 feet AGL
Weather: no significant weather observed at this time

METAR text: EHGR 170725Z AUTO 12005KT 090V150 9999 SCT065 BKN073 BKN090 12/09 Q1020 BLU 11005KT CAVOK
Conditions at: EHGR (GILZE-RIJEN RNLA, NL) observed 0725 UTC 17 April 2019
Temperature: 12.0°C (54°F)
Dewpoint: 9.0°C (48°F) [RH = 82%]
Pressure (altimeter): 30.12 inches Hg (1020.0 mb)
Winds: from the ESE (120 degrees) at 6 MPH (5 knots; 2.6 m/s)
Visibility: 6 or more miles (10+ km)
Ceiling: 7300 feet AGL
Clouds: scattered clouds at 6500 feet AGL
broken clouds at 7300 feet AGL
broken clouds at 9000 feet AGL
Weather: no significant weather observed at this time

METAR text: EHGR 170716Z AUTO 11006KT 9999 FEW020 SCT059 BKN073 12/09 Q1020 BLU 11005KT CAVOK
Conditions at: EHGR (GILZE-RIJEN RNLA, NL) observed 0716 UTC 17 April 2019
Temperature: 12.0°C (54°F)
Dewpoint: 9.0°C (48°F) [RH = 82%]
Pressure (altimeter): 30.12 inches Hg (1020.0 mb)
Winds: from the ESE (110 degrees) at 7 MPH (6 knots; 3.1 m/s)
Visibility: 6 or more miles (10+ km)
Ceiling: 7300 feet AGL
Clouds: few clouds at 2000 feet AGL
scattered clouds at 5900 feet AGL
broken clouds at 7300 feet AGL
Weather: no significant weather observed at this time

METAR text: EHGR 170705Z AUTO 11005KT 080V140 9999 SCT018 SCT063 OVC073 12/09 Q1020 WHT 11005KT CAVOK
Conditions at: EHGR (GILZE-RIJEN RNLA, NL) observed 0705 UTC 17 April 2019
Temperature: 12.0°C (54°F)
Dewpoint: 9.0°C (48°F) [RH = 82%]
Pressure (altimeter): 30.12 inches Hg (1020.0 mb)
Winds: from the ESE (110 degrees) at 6 MPH (5 knots; 2.6 m/s)
Visibility: 6 or more miles (10+ km)
Ceiling: 7300 feet AGL
Clouds: scattered clouds at 1800 feet AGL
scattered clouds at 6300 feet AGL
overcast cloud deck at 7300 feet AGL
Weather: no significant weather observed at this time

METAR text: EHGR 170655Z AUTO 10006KT 070V130 9999 FEW021 BKN073 11/09 Q1020 BLU 11005KT CAVOK
Conditions at: EHGR (GILZE-RIJEN RNLA, NL) observed 0655 UTC 17 April 2019
Temperature: 11.0°C (52°F)
Dewpoint: 9.0°C (48°F) [RH = 87%]
Pressure (altimeter): 30.12 inches Hg (1020.0 mb)
Winds: from the E (100 degrees) at 7 MPH (6 knots; 3.1 m/s)
Visibility: 6 or more miles (10+ km)
Ceiling: 7300 feet AGL
Clouds: few clouds at 2100 feet AGL
broken clouds at 7300 feet AGL
Weather: no significant weather observed at this time

METAR text: EHGR 170642Z AUTO 10006KT 070V140 9999 SCT021 OVC063 11/09 Q1020 WHT 11005KT CAVOK
Conditions at: EHGR (GILZE-RIJEN RNLA, NL) observed 0642 UTC 17 April 2019
Temperature: 11.0°C (52°F)
Dewpoint: 9.0°C (48°F) [RH = 87%]
Pressure (altimeter): 30.12 inches Hg (1020.0 mb)
Winds: from the E (100 degrees) at 7 MPH (6 knots; 3.1 m/s)
Visibility: 6 or more miles (10+ km)
Ceiling: 6300 feet AGL
Clouds: scattered clouds at 2100 feet AGL
overcast cloud deck at 6300 feet AGL
Weather: no significant weather observed at this time

Forecast for: EHGR (GILZE-RIJEN RNLA, NL)
Text: TAF EHGR 181632Z 1817/1905 08012KT CAVOK
Forecast period: 1700 UTC 18 April 2019 to 0500 UTC 19 April 2019
Forecast type: FROM: standard forecast or significant change
Winds: from the E (80 degrees) at 14 MPH (12 knots; 6.2 m/s)
Visibility: 6 or more miles 10+ km)
Ceiling: unknown
Clouds: missing
Weather: NSW  (no significant weather)
Text: BECMG 1817/1819 07009KT
Forecast period: 1700 UTC 18 April 2019 to 0500 UTC 19 April 2019
Forecast type: BECOMING: Conditions expected to become as follows by 1900 UTC 18 April 2019
Winds: from the ENE (70 degrees) at 10 MPH (9 knots; 4.6 m/s)
Visibility: 6 or more miles 10+ km)
Ceiling: unknown
Clouds: missing
Weather: NSW  (no significant weather)